Time;durP1;ratioP1;P1;durP2;ratioP2;P2;SDS_P1;SDS_P2;PMS_P1;PMS_P2;Temp;Humidity;BMP_temperature;BMP_pressure;BME280_temperature;BME280_humidity;BME280_pressure;Samples;Min_cycle;Max_cycle;Signal;HPM_P1;HPM_P2
2021/10/13 00:04:09;;;;;;;2.25;1.00;;;;;;;9.35;77.37;100616.53;10268644;28;20173;-60
2021/10/13 00:09:11;;;;;;;3.28;1.30;;;;;;;9.33;77.50;100617.59;10272811;28;20567;-61
2021/10/13 00:14:12;;;;;;;4.75;1.60;;;;;;;9.32;78.07;100621.19;10269973;28;20176;-60
2021/10/13 00:19:14;;;;;;;2.72;1.55;;;;;;;9.31;77.84;100623.00;10264350;28;20081;-60
2021/10/13 00:24:15;;;;;;;3.13;1.25;;;;;;;9.28;77.50;100630.34;10272070;28;20039;-60
2021/10/13 00:29:17;;;;;;;4.30;1.63;;;;;;;9.24;77.67;100647.44;10267806;28;20063;-60
2021/10/13 00:34:18;;;;;;;2.78;1.50;;;;;;;9.20;77.48;100639.69;10275609;28;20242;-60
2021/10/13 00:39:19;;;;;;;3.95;1.80;;;;;;;9.14;77.86;100645.44;10267816;28;20074;-61
2021/10/13 00:44:21;;;;;;;4.00;1.58;;;;;;;9.08;77.64;100656.44;10264513;28;20440;-60
2021/10/13 00:49:22;;;;;;;1.65;1.13;;;;;;;9.09;77.46;100668.78;10264070;28;20050;-60
2021/10/13 00:54:24;;;;;;;3.67;1.05;;;;;;;9.06;76.83;100673.44;10267995;28;20051;-61
2021/10/13 00:59:26;;;;;;;3.25;1.63;;;;;;;9.06;77.52;100674.28;10264486;28;20066;-61
2021/10/13 01:04:36;;;;;;;2.83;1.52;;;;;;;9.05;77.85;100685.03;10262724;28;20066;-61
2021/10/13 01:09:52;;;;;;;3.38;1.55;;;;;;;9.05;78.01;100692.97;10259919;28;20070;-60
2021/10/13 01:15:23;;;;;;;3.22;1.70;;;;;;;9.08;78.12;100696.28;10264618;28;20560;-60
2021/10/13 01:20:48;;;;;;;2.47;1.70;;;;;;;9.22;78.04;100707.78;10226886;28;20066;-60
2021/10/13 01:26:02;;;;;;;2.92;1.88;;;;;;;9.33;77.48;100699.94;10263882;28;20542;-61
2021/10/13 01:31:16;;;;;;;2.50;1.60;;;;;;;9.35;78.54;100708.66;10258424;28;20074;-60
2021/10/13 01:36:25;;;;;;;3.13;2.35;;;;;;;9.30;78.73;100713.44;10259906;28;20150;-61
2021/10/13 01:41:28;;;;;;;3.42;2.10;;;;;;;9.21;78.43;100709.59;10267290;28;20598;-60
2021/10/13 01:46:30;;;;;;;3.85;2.30;;;;;;;9.14;78.14;100700.31;10269572;28;20566;-60
2021/10/13 01:51:33;;;;;;;3.55;2.53;;;;;;;9.17;78.33;100710.75;10270900;28;20135;-60
2021/10/13 01:56:38;;;;;;;3.40;2.40;;;;;;;9.20;78.65;100711.41;10255038;28;20141;-60
2021/10/13 02:01:40;;;;;;;4.80;2.35;;;;;;;9.21;79.08;100720.22;10252709;28;20139;-61
2021/10/13 02:06:42;;;;;;;4.32;2.38;;;;;;;9.26;78.94;100717.25;10253576;28;20055;-60
2021/10/13 02:11:45;;;;;;;7.45;3.28;;;;;;;9.25;78.36;100705.78;10260626;28;20453;-60
2021/10/13 02:16:50;;;;;;;3.28;2.50;;;;;;;9.23;79.34;100712.16;10264650;28;20276;-60
2021/10/13 02:21:54;;;;;;;4.38;2.70;;;;;;;9.27;78.98;100708.34;10263107;28;20062;-61
2021/10/13 02:27:05;;;;;;;5.32;3.58;;;;;;;9.35;79.03;100716.63;10263058;28;20123;-60
2021/10/13 02:32:08;;;;;;;5.35;3.33;;;;;;;9.28;78.06;100715.34;10259206;28;20069;-59
2021/10/13 02:37:09;;;;;;;6.85;3.92;;;;;;;9.28;78.56;100725.97;10259928;28;20117;-59
2021/10/13 02:42:10;;;;;;;4.30;3.28;;;;;;;9.33;79.21;100729.16;10264327;28;20117;-59
2021/10/13 02:47:22;;;;;;;4.75;3.03;;;;;;;9.31;78.69;100736.41;10260870;28;20089;-60
2021/10/13 02:52:42;;;;;;;4.60;2.92;;;;;;;9.26;79.09;100734.03;10263297;28;20107;-59
2021/10/13 02:57:52;;;;;;;4.55;3.05;;;;;;;9.28;80.02;100737.44;10232163;28;20626;-59
2021/10/13 03:03:08;;;;;;;4.00;2.80;;;;;;;9.39;79.67;100739.38;10226741;28;20277;-59
2021/10/13 03:08:13;;;;;;;4.75;3.40;;;;;;;9.37;79.46;100736.81;10221707;28;20051;-60
2021/10/13 03:13:19;;;;;;;4.18;3.25;;;;;;;9.39;79.50;100739.38;10220671;28;20593;-60
2021/10/13 03:18:22;;;;;;;4.70;3.20;;;;;;;9.38;79.13;100748.28;10221405;28;20077;-59
2021/10/13 03:23:24;;;;;;;5.82;3.83;;;;;;;9.34;79.57;100752.97;10216428;28;20079;-60
2021/10/13 03:28:26;;;;;;;4.10;3.30;;;;;;;9.36;79.80;100752.88;10217713;28;20047;-59
2021/10/13 03:33:27;;;;;;;6.07;3.70;;;;;;;9.36;79.49;100758.19;10224615;28;20075;-60
2021/10/13 03:38:29;;;;;;;6.65;4.20;;;;;;;9.33;79.76;100755.72;10226243;28;20135;-59
2021/10/13 03:43:30;;;;;;;5.03;3.50;;;;;;;9.36;79.71;100771.47;10224428;28;20153;-60
2021/10/13 03:48:32;;;;;;;4.80;3.85;;;;;;;9.44;80.39;100776.25;10216609;28;20119;-60
2021/10/13 03:53:33;;;;;;;4.43;3.15;;;;;;;9.46;80.32;100783.19;10223063;28;20083;-60
2021/10/13 03:58:34;;;;;;;5.40;3.60;;;;;;;9.41;79.64;100792.41;10225390;28;20114;-59
2021/10/13 04:03:36;;;;;;;5.55;3.85;;;;;;;9.50;79.06;100807.72;10231263;28;20129;-59
2021/10/13 04:08:38;;;;;;;5.70;3.40;;;;;;;9.54;79.68;100811.91;10262022;28;20086;-59
2021/10/13 04:13:39;;;;;;;6.88;3.92;;;;;;;9.57;79.66;100808.19;10258703;28;20488;-60
2021/10/13 04:18:41;;;;;;;5.18;3.38;;;;;;;9.58;79.56;100812.53;10258569;28;20066;-59
2021/10/13 04:23:42;;;;;;;7.05;3.80;;;;;;;9.59;79.01;100817.75;10264762;28;20082;-59
2021/10/13 04:28:44;;;;;;;4.53;3.58;;;;;;;9.63;79.54;100815.75;10272790;28;20129;-60
2021/10/13 04:33:45;;;;;;;5.72;3.45;;;;;;;9.50;79.55;100819.25;10267081;28;20058;-60
2021/10/13 04:38:46;;;;;;;5.65;3.75;;;;;;;9.52;79.78;100819.97;10274883;28;20054;-59
2021/10/13 04:43:48;;;;;;;5.07;3.90;;;;;;;9.55;80.43;100818.94;10268826;28;20126;-59
2021/10/13 04:48:49;;;;;;;5.68;3.83;;;;;;;9.54;80.33;100827.84;10272665;28;20066;-59
2021/10/13 04:53:51;;;;;;;6.75;4.45;;;;;;;9.51;80.75;100831.56;10266442;28;20055;-59
2021/10/13 04:58:52;;;;;;;4.53;4.10;;;;;;;9.45;80.87;100818.69;10261359;28;20223;-60
2021/10/13 05:03:53;;;;;;;8.45;4.97;;;;;;;9.53;81.04;100840.28;10250678;28;20052;-60
2021/10/13 05:08:55;;;;;;;8.85;5.10;;;;;;;9.62;80.67;100830.81;10255542;28;20446;-60
2021/10/13 05:13:56;;;;;;;6.88;5.25;;;;;;;9.71;81.25;100843.53;10261415;28;20049;-60
2021/10/13 05:18:58;;;;;;;7.85;6.25;;;;;;;9.75;81.28;100843.31;10259398;28;20051;-60
2021/10/13 05:23:59;;;;;;;7.65;6.15;;;;;;;9.83;81.26;100848.94;10258087;28;20502;-59
2021/10/13 05:29:00;;;;;;;7.10;6.40;;;;;;;9.88;81.34;100868.97;10259535;28;20145;-59
2021/10/13 05:34:02;;;;;;;7.97;6.68;;;;;;;9.91;81.49;100868.75;10258959;28;20055;-60
2021/10/13 05:39:03;;;;;;;7.82;7.03;;;;;;;9.96;81.90;100875.56;10251856;28;20081;-59
2021/10/13 05:44:05;;;;;;;10.07;6.70;;;;;;;10.00;82.34;100872.59;10253369;28;20148;-60
2021/10/13 05:49:06;;;;;;;9.30;7.38;;;;;;;9.98;82.37;100885.13;10256275;28;20050;-60
2021/10/13 05:54:08;;;;;;;9.63;6.50;;;;;;;9.93;82.76;100886.41;10257763;28;20134;-60
2021/10/13 05:59:09;;;;;;;9.15;6.60;;;;;;;9.94;82.49;100877.47;10250057;28;20051;-60
2021/10/13 06:04:11;;;;;;;10.30;6.13;;;;;;;10.01;83.03;100889.41;10252165;28;20161;-57
2021/10/13 06:09:12;;;;;;;8.73;6.78;;;;;;;10.03;83.28;100895.47;10238668;28;20046;-57
2021/10/13 06:14:14;;;;;;;7.82;5.15;;;;;;;10.14;82.90;100892.91;10235197;28;20694;-57
2021/10/13 06:19:15;;;;;;;7.65;6.20;;;;;;;10.17;81.94;100903.34;10239793;28;20054;-60
2021/10/13 06:24:17;;;;;;;8.63;6.88;;;;;;;10.18;81.03;100890.91;10240936;28;20061;-59
2021/10/13 06:29:18;;;;;;;7.57;6.07;;;;;;;10.36;81.51;100907.47;10227298;28;20079;-60
2021/10/13 06:34:20;;;;;;;7.75;6.93;;;;;;;10.32;81.03;100909.44;10235390;28;20493;-60
2021/10/13 06:39:22;;;;;;;9.35;8.25;;;;;;;10.26;80.91;100916.03;10246126;23;20429;-58
2021/10/13 06:44:25;;;;;;;11.73;9.20;;;;;;;10.38;81.42;100918.84;10220032;28;20051;-57
2021/10/13 06:49:26;;;;;;;13.32;10.65;;;;;;;10.43;80.27;100922.91;10221296;28;20079;-58
2021/10/13 06:54:28;;;;;;;13.27;11.00;;;;;;;10.50;80.77;100922.47;10223816;28;20122;-59
2021/10/13 06:59:29;;;;;;;14.20;10.18;;;;;;;10.73;80.11;100935.03;10228502;28;20101;-57
2021/10/13 07:04:31;;;;;;;13.95;11.50;;;;;;;10.69;80.47;100928.19;10221506;28;20063;-56
2021/10/13 07:09:33;;;;;;;15.68;10.40;;;;;;;10.83;80.11;100947.69;10230269;28;20087;-57
2021/10/13 07:14:34;;;;;;;12.93;9.68;;;;;;;10.88;78.02;100954.38;10227445;28;20071;-57
2021/10/13 07:19:36;;;;;;;20.23;13.77;;;;;;;11.05;80.41;100955.84;10235094;28;20605;-57
2021/10/13 07:24:37;;;;;;;13.75;11.93;;;;;;;11.15;79.36;100961.38;10225014;28;20153;-57
2021/10/13 07:29:44;;;;;;;15.70;12.90;;;;;;;11.18;79.44;100970.97;10235260;28;20677;-57
2021/10/13 07:34:45;;;;;;;16.02;11.60;;;;;;;11.14;78.71;100967.69;10231918;28;20163;-58
2021/10/13 07:39:47;;;;;;;15.18;11.57;;;;;;;11.32;77.84;100965.50;10244328;28;20051;-58
2021/10/13 07:44:49;;;;;;;13.52;11.55;;;;;;;11.41;78.32;100974.63;10232173;28;20066;-57
2021/10/13 07:49:50;;;;;;;16.85;11.35;;;;;;;11.98;77.43;100976.66;10229265;28;20098;-57
2021/10/13 07:54:52;;;;;;;13.10;10.63;;;;;;;12.47;71.05;100963.22;10235431;28;20079;-58
2021/10/13 07:59:53;;;;;;;17.10;11.18;;;;;;;12.70;72.78;100989.00;10235516;28;20071;-58
2021/10/13 08:04:55;;;;;;;11.25;9.27;;;;;;;12.82;72.17;100991.66;10233097;28;20516;-58
2021/10/13 08:09:56;;;;;;;13.50;10.18;;;;;;;12.78;72.13;101000.91;10235771;28;21926;-58
2021/10/13 08:14:59;;;;;;;10.50;9.40;;;;;;;12.70;72.28;100997.00;10253858;28;20119;-58
2021/10/13 08:20:03;;;;;;;13.77;9.70;;;;;;;12.64;71.43;101000.16;10234931;28;20444;-57
2021/10/13 08:25:06;;;;;;;10.82;8.80;;;;;;;12.59;71.50;101001.47;10235329;28;20787;-57
2021/10/13 08:30:09;;;;;;;10.25;9.23;;;;;;;12.61;72.40;101016.44;10240044;28;20134;-57
2021/10/13 08:35:10;;;;;;;7.20;6.47;;;;;;;12.62;71.54;101010.09;10239235;28;20134;-57
2021/10/13 08:40:12;;;;;;;8.70;6.18;;;;;;;12.36;70.51;101002.28;10230229;28;20062;-57
2021/10/13 08:45:13;;;;;;;7.25;6.55;;;;;;;12.59;71.06;101021.03;10238302;28;20079;-61
2021/10/13 08:50:15;;;;;;;8.77;6.75;;;;;;;12.61;71.77;101016.44;10268425;28;20133;-57
2021/10/13 08:55:20;;;;;;;7.10;6.40;;;;;;;12.57;70.23;101017.63;10237214;28;20078;-57
2021/10/13 09:00:22;;;;;;;7.85;6.70;;;;;;;12.67;69.43;101015.06;10244653;28;20129;-58
2021/10/13 09:05:24;;;;;;;7.43;6.43;;;;;;;12.97;69.36;101017.22;10231892;28;20058;-57
2021/10/13 09:10:30;;;;;;;6.25;5.18;;;;;;;13.68;66.84;101016.94;10232724;28;20146;-57
2021/10/13 09:15:32;;;;;;;7.03;4.97;;;;;;;13.88;62.80;101006.41;10237903;28;20145;-57
2021/10/13 09:20:35;;;;;;;5.78;3.33;;;;;;;13.99;60.62;101014.44;10236402;28;20163;-57
2021/10/13 09:25:59;;;;;;;4.05;3.38;;;;;;;14.61;61.77;101020.00;10273995;28;20575;-57
2021/10/13 09:31:15;;;;;;;5.38;3.40;;;;;;;14.94;59.10;101016.25;10274531;28;20053;-58
2021/10/13 09:36:16;;;;;;;6.97;3.75;;;;;;;15.14;58.87;101027.88;10276223;28;20503;-57
2021/10/13 09:41:18;;;;;;;4.03;3.17;;;;;;;14.95;60.04;101033.16;10283159;28;20136;-57
2021/10/13 09:46:20;;;;;;;6.00;3.15;;;;;;;14.46;60.81;101039.03;10270822;28;20082;-57
2021/10/13 09:51:23;;;;;;;6.07;4.22;;;;;;;14.20;61.38;100992.16;10273663;28;20062;-57
2021/10/13 09:56:38;;;;;;;5.78;5.25;;;;;;;15.16;58.79;101031.31;10269988;28;20073;-57
2021/10/13 10:01:49;;;;;;;4.82;3.47;;;;;;;14.15;60.45;101020.16;10214524;28;20071;-57
2021/10/13 10:06:58;;;;;;;5.85;3.90;;;;;;;13.87;63.07;101027.00;10208904;28;20074;-57
2021/10/13 10:12:07;;;;;;;10.38;9.52;;;;;;;13.67;63.12;101025.09;10203730;28;20557;-58
2021/10/13 10:17:39;;;;;;;9.10;7.05;;;;;;;14.74;62.50;101033.19;10207012;28;20055;-58
2021/10/13 10:22:45;;;;;;;8.48;6.90;;;;;;;15.14;60.00;101027.88;10204438;28;20139;-57
2021/10/13 10:27:47;;;;;;;7.35;6.63;;;;;;;14.52;60.08;101016.25;10209151;28;20055;-57
2021/10/13 10:33:15;;;;;;;11.77;7.13;;;;;;;14.57;58.84;101034.59;10205119;28;20111;-58
2021/10/13 10:38:19;;;;;;;8.82;5.55;;;;;;;15.71;57.90;101033.59;10199572;28;20146;-57
2021/10/13 10:43:23;;;;;;;14.18;6.13;;;;;;;16.11;56.00;101037.22;10206860;28;20058;-57
2021/10/13 10:48:46;;;;;;;7.07;5.00;;;;;;;14.96;58.22;101029.50;10207543;28;20059;-57
2021/10/13 10:53:49;;;;;;;7.85;5.75;;;;;;;14.67;59.59;101025.66;10205311;28;20505;-58
2021/10/13 10:58:57;;;;;;;6.00;4.40;;;;;;;14.97;59.49;101023.16;10204629;28;20135;-57
2021/10/13 11:04:05;;;;;;;3.60;2.33;;;;;;;16.00;53.42;101029.28;10208454;28;20055;-57
2021/10/13 11:09:12;;;;;;;3.58;2.50;;;;;;;16.37;52.42;101017.84;10218022;28;20051;-58
2021/10/13 11:14:23;;;;;;;3.67;2.70;;;;;;;15.95;53.38;101034.22;10203658;28;20139;-58
2021/10/13 11:19:33;;;;;;;4.85;3.28;;;;;;;15.77;54.00;101029.50;10217100;28;20074;-58
2021/10/13 11:24:45;;;;;;;9.43;4.65;;;;;;;16.85;52.04;101030.34;10236958;28;20047;-55
2021/10/13 11:29:47;;;;;;;6.15;3.55;;;;;;;16.57;52.49;101038.34;10247676;28;20709;-56
2021/10/13 11:34:57;;;;;;;4.88;3.45;;;;;;;15.54;54.94;101024.38;10280137;28;20129;-57
2021/10/13 11:39:59;;;;;;;6.22;3.72;;;;;;;14.97;57.80;101028.53;10276339;28;20070;-56
2021/10/13 11:45:01;;;;;;;6.65;3.35;;;;;;;14.53;59.49;101020.59;10247067;28;20108;-57
2021/10/13 11:50:20;;;;;;;4.13;3.20;;;;;;;14.20;62.78;101030.53;10254879;28;20061;-56
2021/10/13 11:55:33;;;;;;;5.45;3.75;;;;;;;14.60;61.79;101035.19;10272506;28;20583;-57
2021/10/13 12:00:45;;;;;;;5.03;3.55;;;;;;;14.74;61.70;101020.66;10281613;28;20058;-56
2021/10/13 12:05:54;;;;;;;7.68;2.97;;;;;;;15.95;57.73;101026.19;10283556;28;20631;-57
2021/10/13 12:11:04;;;;;;;3.97;2.97;;;;;;;19.43;49.16;101013.59;10281212;28;20074;-57
2021/10/13 12:16:08;;;;;;;3.47;2.40;;;;;;;22.51;40.50;101007.13;10268804;28;20122;-57
2021/10/13 12:21:18;;;;;;;4.82;2.10;;;;;;;27.10;33.04;101005.31;10284012;28;20054;-57
2021/10/13 12:26:25;;;;;;;3.28;1.90;;;;;;;31.97;24.05;100994.56;10285361;28;20074;-56
2021/10/13 12:31:30;;;;;;;4.60;1.88;;;;;;;34.13;21.97;101002.97;10282018;28;20042;-56
2021/10/13 12:36:36;;;;;;;3.92;1.85;;;;;;;33.89;20.83;100991.44;10282739;28;20058;-56
2021/10/13 12:41:46;;;;;;;2.33;1.33;;;;;;;32.06;20.74;101003.25;10284765;28;20121;-57
2021/10/13 12:47:17;;;;;;;2.42;1.23;;;;;;;35.83;17.67;100983.69;10257250;28;20137;-57
2021/10/13 12:52:18;;;;;;;2.55;1.15;;;;;;;35.57;16.98;100986.41;10252170;28;20061;-57
2021/10/13 12:57:22;;;;;;;2.22;1.00;;;;;;;29.14;23.95;100985.13;10249973;28;20145;-56
2021/10/13 13:02:23;;;;;;;1.60;1.02;;;;;;;25.45;28.35;100990.28;10251483;28;20161;-57
2021/10/13 13:07:25;;;;;;;1.88;1.20;;;;;;;22.15;32.62;101006.91;10249038;28;20054;-55
2021/10/13 13:12:26;;;;;;;1.85;0.70;;;;;;;19.81;37.67;101004.28;10243875;28;20577;-56
2021/10/13 13:17:28;;;;;;;4.10;1.50;;;;;;;18.48;41.53;101001.91;10254072;28;20117;-55
2021/10/13 13:22:29;;;;;;;4.13;2.53;;;;;;;17.24;44.06;101007.88;10247947;28;20078;-56
2021/10/13 13:27:31;;;;;;;4.32;2.63;;;;;;;16.76;47.29;101001.66;10249548;28;20150;-55
2021/10/13 13:32:32;;;;;;;5.40;3.08;;;;;;;16.65;46.33;101001.81;10248475;28;20166;-56
2021/10/13 13:37:38;;;;;;;4.47;2.25;;;;;;;16.52;45.14;101008.34;10250156;28;20054;-56
2021/10/13 13:42:41;;;;;;;3.45;2.30;;;;;;;16.39;46.08;101013.16;10247304;28;20150;-55
2021/10/13 13:47:42;;;;;;;5.00;2.53;;;;;;;16.09;48.19;101006.94;10250852;28;20536;-56
2021/10/13 13:52:43;;;;;;;4.07;2.00;;;;;;;15.55;47.59;101022.53;10252168;28;20406;-55
2021/10/13 13:57:45;;;;;;;5.60;3.45;;;;;;;15.17;50.54;101024.94;10248819;28;20141;-55
2021/10/13 14:02:47;;;;;;;4.30;2.90;;;;;;;14.49;50.36;101028.06;10245533;28;20109;-58
2021/10/13 14:07:48;;;;;;;4.55;3.45;;;;;;;14.86;52.26;100999.94;10252092;28;20125;-61
2021/10/13 14:12:50;;;;;;;3.30;3.00;;;;;;;15.89;48.81;101023.03;10247692;28;20137;-55
2021/10/13 14:17:51;;;;;;;4.95;3.45;;;;;;;15.32;50.19;101030.78;10249996;28;20155;-57
2021/10/13 14:22:53;;;;;;;4.63;3.35;;;;;;;15.39;51.53;101025.75;10271402;28;20043;-57
2021/10/13 14:27:55;;;;;;;6.20;3.10;;;;;;;15.40;50.73;101016.69;10254105;28;20246;-58
2021/10/13 14:32:58;;;;;;;5.82;4.07;;;;;;;15.32;51.12;101024.59;10250587;28;20126;-58
2021/10/13 14:37:59;;;;;;;6.63;3.38;;;;;;;14.82;52.66;101033.38;10253953;28;20129;-57
2021/10/13 14:43:04;;;;;;;5.03;3.65;;;;;;;14.98;52.79;101031.09;10247507;28;20086;-57
2021/10/13 14:48:06;;;;;;;6.60;3.53;;;;;;;14.62;51.10;101027.03;10248869;28;20129;-57
2021/10/13 14:53:07;;;;;;;5.75;3.67;;;;;;;14.56;54.31;101006.09;10245772;28;20496;-57
2021/10/13 14:58:10;;;;;;;4.20;3.20;;;;;;;14.98;54.70;101016.81;10248605;28;20054;-60
2021/10/13 15:03:11;;;;;;;5.88;3.15;;;;;;;14.93;51.56;101019.88;10250051;28;20125;-56
2021/10/13 15:08:13;;;;;;;5.25;3.33;;;;;;;15.10;52.37;101021.13;10248900;28;20050;-57
2021/10/13 15:13:14;;;;;;;5.78;4.28;;;;;;;14.66;50.59;101025.81;10264085;28;20042;-57
2021/10/13 15:18:16;;;;;;;4.65;3.03;;;;;;;14.31;51.64;101025.09;10268757;28;20141;-58
2021/10/13 15:23:18;;;;;;;6.32;3.30;;;;;;;14.10;55.64;101032.25;10276594;28;20150;-56
2021/10/13 15:28:20;;;;;;;5.10;2.97;;;;;;;14.19;53.32;101030.66;10241137;28;20129;-57
2021/10/13 15:33:21;;;;;;;4.47;2.67;;;;;;;14.23;53.76;101037.44;10240204;28;20057;-57
2021/10/13 15:38:22;;;;;;;5.60;3.05;;;;;;;14.24;55.79;101039.13;10242937;28;20230;-56
2021/10/13 15:43:24;;;;;;;4.57;3.30;;;;;;;14.13;55.98;101037.38;10246992;28;20419;-57
2021/10/13 15:48:29;;;;;;;4.85;3.13;;;;;;;14.05;57.09;101048.72;10234642;28;20067;-56
2021/10/13 15:53:31;;;;;;;5.10;4.03;;;;;;;13.96;57.24;101057.47;10220364;28;20580;-57
2021/10/13 15:58:32;;;;;;;5.30;3.42;;;;;;;13.65;58.18;101053.78;10226538;28;20139;-56
2021/10/13 16:03:33;;;;;;;8.23;4.07;;;;;;;13.63;57.81;101055.72;10224671;28;20071;-56
2021/10/13 16:08:39;;;;;;;6.38;3.55;;;;;;;13.52;59.41;101037.88;10235911;28;20074;-57
2021/10/13 16:13:41;;;;;;;5.68;3.53;;;;;;;13.52;59.28;101054.75;10235449;28;20133;-56
2021/10/13 16:18:42;;;;;;;3.75;3.13;;;;;;;13.56;58.90;101077.63;10249177;28;20046;-57
2021/10/13 16:23:45;;;;;;;5.80;3.65;;;;;;;13.46;60.03;101075.81;10273155;28;20129;-56
2021/10/13 16:28:47;;;;;;;6.50;3.28;;;;;;;13.41;59.99;101082.38;10276161;28;20150;-56
2021/10/13 16:33:48;;;;;;;4.25;3.25;;;;;;;13.35;60.84;101080.19;10236471;28;20556;-56
2021/10/13 16:38:50;;;;;;;6.93;4.57;;;;;;;13.35;59.20;101074.00;10222596;28;20454;-56
2021/10/13 16:43:51;;;;;;;7.18;4.53;;;;;;;13.27;59.32;101074.56;10210802;28;20159;-56
2021/10/13 16:48:53;;;;;;;7.68;4.88;;;;;;;13.31;59.77;101083.19;10208527;28;20115;-60
2021/10/13 16:53:54;;;;;;;6.35;4.13;;;;;;;13.22;59.71;101082.94;10206017;28;20066;-56
2021/10/13 16:58:56;;;;;;;9.85;5.32;;;;;;;13.28;60.79;101089.63;10201394;28;20448;-61
2021/10/13 17:03:59;;;;;;;7.00;4.15;;;;;;;13.32;60.46;101083.06;10205468;28;20401;-57
2021/10/13 17:09:01;;;;;;;9.00;4.55;;;;;;;13.22;61.65;101101.66;10200970;28;20359;-56
2021/10/13 17:14:02;;;;;;;5.25;4.30;;;;;;;13.24;60.78;101090.81;10200559;28;20054;-59
2021/10/13 17:19:05;;;;;;;8.07;5.32;;;;;;;13.25;61.31;101100.56;10202357;28;20082;-59
2021/10/13 17:24:08;;;;;;;7.72;5.13;;;;;;;13.21;60.67;101099.09;10200044;28;20066;-56
2021/10/13 17:29:11;;;;;;;5.70;4.47;;;;;;;13.15;62.58;101094.22;10204633;28;20410;-57
2021/10/13 17:34:13;;;;;;;9.68;5.55;;;;;;;13.12;62.53;101095.34;10199311;28;20050;-59
2021/10/13 17:39:15;;;;;;;7.65;4.55;;;;;;;13.02;63.35;101108.56;10207831;28;20612;-56
2021/10/13 17:44:20;;;;;;;7.35;4.68;;;;;;;13.06;63.89;101112.69;10206669;28;20496;-60
2021/10/13 17:49:21;;;;;;;7.53;5.32;;;;;;;13.00;63.51;101104.28;10202299;28;20059;-60
2021/10/13 17:54:23;;;;;;;7.30;5.30;;;;;;;12.90;64.04;101112.19;10204645;28;20095;-60
2021/10/13 17:59:24;;;;;;;6.35;5.63;;;;;;;12.83;64.75;101119.78;10237613;23;20121;-61
2021/10/13 18:04:26;;;;;;;10.73;5.80;;;;;;;12.83;65.43;101127.81;10225368;28;20054;-62
2021/10/13 18:09:27;;;;;;;8.38;6.78;;;;;;;12.84;65.24;101129.53;10240901;28;20043;-64
2021/10/13 18:14:29;;;;;;;6.65;5.85;;;;;;;12.88;64.93;101124.78;10223425;28;20042;-63
2021/10/13 18:19:31;;;;;;;7.80;5.28;;;;;;;12.78;65.32;101129.16;10244001;28;20149;-63
2021/10/13 18:24:33;;;;;;;9.73;5.90;;;;;;;12.71;66.14;101140.28;10223712;28;20155;-62
2021/10/13 18:29:34;;;;;;;8.73;6.53;;;;;;;12.67;66.11;101153.97;10224615;28;20194;-63
2021/10/13 18:34:36;;;;;;;7.78;5.68;;;;;;;12.64;66.14;101149.75;10243578;28;20858;-64
2021/10/13 18:39:37;;;;;;;8.35;5.88;;;;;;;12.63;67.03;101160.53;10241823;28;20081;-63
2021/10/13 18:44:39;;;;;;;9.10;6.10;;;;;;;12.63;66.09;101157.88;10239767;28;20114;-63
2021/10/13 18:49:40;;;;;;;6.97;6.28;;;;;;;12.61;67.08;101163.31;10241923;28;20472;-62
2021/10/13 18:54:42;;;;;;;9.70;5.50;;;;;;;12.65;66.45;101158.59;10246109;28;20043;-62
2021/10/13 18:59:44;;;;;;;7.05;5.80;;;;;;;12.58;66.56;101163.56;10234650;28;20133;-61
2021/10/13 19:04:46;;;;;;;8.90;6.63;;;;;;;12.56;67.09;101165.47;10238928;28;20138;-62
2021/10/13 19:09:47;;;;;;;9.48;5.10;;;;;;;12.59;67.15;101173.25;10244268;28;20781;-63
2021/10/13 19:14:49;;;;;;;6.55;5.25;;;;;;;12.58;66.52;101179.59;10245933;28;20118;-63
2021/10/13 19:19:50;;;;;;;9.43;6.32;;;;;;;12.54;67.26;101175.44;10241653;28;20051;-63
2021/10/13 19:24:51;;;;;;;8.27;5.95;;;;;;;12.49;67.32;101167.75;10241447;28;20063;-64
2021/10/13 19:29:53;;;;;;;7.35;5.97;;;;;;;12.54;66.45;101181.59;10232116;28;20575;-64
2021/10/13 19:34:54;;;;;;;9.18;6.05;;;;;;;12.47;67.13;101182.19;10239093;28;20473;-62
2021/10/13 19:39:56;;;;;;;8.38;5.57;;;;;;;12.47;67.67;101190.19;10236436;28;20050;-62
2021/10/13 19:44:57;;;;;;;8.35;6.03;;;;;;;12.53;66.96;101176.38;10240909;28;20159;-63
2021/10/13 19:49:59;;;;;;;9.60;7.30;;;;;;;12.54;67.51;101175.44;10238625;28;20400;-63
2021/10/13 19:55:01;;;;;;;9.30;6.25;;;;;;;12.53;67.13;101171.88;10228234;28;20074;-61
2021/10/13 20:00:04;;;;;;;6.35;5.43;;;;;;;12.50;67.90;101177.44;10242166;28;20225;-60
2021/10/13 20:05:07;;;;;;;6.97;5.33;;;;;;;12.50;67.62;101176.59;10240297;28;20528;-61
2021/10/13 20:10:09;;;;;;;8.15;5.53;;;;;;;12.46;68.05;101177.78;10243026;28;20062;-60
2021/10/13 20:15:10;;;;;;;8.73;4.30;;;;;;;12.44;66.87;101196.59;10238982;28;20061;-60
2021/10/13 20:20:12;;;;;;;9.70;6.65;;;;;;;12.44;67.54;101201.09;10248899;28;20051;-60
2021/10/13 20:25:14;;;;;;;8.32;6.40;;;;;;;12.43;67.76;101200.25;10246046;28;20536;-61
2021/10/13 20:30:17;;;;;;;6.80;5.97;;;;;;;12.38;67.12;101211.28;10250783;28;20697;-60
2021/10/13 20:35:18;;;;;;;9.27;6.55;;;;;;;12.27;67.84;101221.03;10264550;28;20607;-60
2021/10/13 20:40:20;;;;;;;7.10;5.65;;;;;;;12.09;68.60;101213.38;10263147;28;20051;-61
2021/10/13 20:45:21;;;;;;;8.77;6.05;;;;;;;12.15;69.29;101214.75;10243286;28;20113;-60
2021/10/13 20:50:25;;;;;;;7.32;5.10;;;;;;;12.05;69.07;101203.03;10261171;28;20133;-61
2021/10/13 20:55:26;;;;;;;8.32;5.43;;;;;;;12.00;68.42;101204.19;10264402;28;20058;-60
2021/10/13 21:00:29;;;;;;;10.15;5.70;;;;;;;11.87;69.02;101207.81;10252089;28;20117;-61
2021/10/13 21:05:31;;;;;;;7.00;5.13;;;;;;;11.93;69.70;101213.59;10264118;28;20066;-61
2021/10/13 21:10:32;;;;;;;9.18;5.63;;;;;;;11.89;70.01;101212.09;10270302;28;20416;-61
2021/10/13 21:15:34;;;;;;;7.28;6.13;;;;;;;11.79;70.64;101208.38;10262986;28;20519;-61
2021/10/13 21:20:36;;;;;;;7.47;5.22;;;;;;;11.72;71.22;101215.09;10264102;28;20082;-61
2021/10/13 21:25:41;;;;;;;9.23;6.30;;;;;;;11.76;71.58;101216.59;10263669;28;20130;-60
2021/10/13 21:30:43;;;;;;;6.45;5.72;;;;;;;11.68;70.88;101217.97;10269903;28;20393;-61
2021/10/13 21:35:45;;;;;;;6.90;5.80;;;;;;;11.55;71.25;101214.44;10272011;28;20054;-60
2021/10/13 21:40:46;;;;;;;9.00;6.38;;;;;;;11.51;71.72;101212.94;10268740;28;20062;-60
2021/10/13 21:45:48;;;;;;;10.50;5.43;;;;;;;11.48;72.83;101215.81;10259087;28;20074;-60
2021/10/13 21:50:49;;;;;;;7.25;5.75;;;;;;;11.51;72.82;101207.63;10268558;28;20591;-61
2021/10/13 21:55:52;;;;;;;6.40;5.53;;;;;;;11.56;72.73;101202.84;10269840;28;20054;-65
2021/10/13 22:00:54;;;;;;;7.18;5.20;;;;;;;11.56;71.48;101207.28;10253474;28;20050;-60
2021/10/13 22:05:57;;;;;;;6.93;5.18;;;;;;;11.57;73.06;101201.84;10269231;28;20078;-60
2021/10/13 22:10:59;;;;;;;7.38;5.47;;;;;;;11.62;72.22;101205.06;10271882;28;20071;-61
2021/10/13 22:16:01;;;;;;;6.47;5.20;;;;;;;11.62;72.57;101215.75;10268164;28;20082;-60
2021/10/13 22:21:02;;;;;;;6.38;4.75;;;;;;;11.71;72.48;101200.03;10270746;28;20642;-60
2021/10/13 22:26:04;;;;;;;9.00;5.35;;;;;;;11.79;72.90;101200.38;10269592;28;20724;-61
2021/10/13 22:31:05;;;;;;;6.97;5.05;;;;;;;11.79;72.55;101203.88;10253119;28;20146;-60
2021/10/13 22:36:07;;;;;;;6.05;4.63;;;;;;;11.78;72.57;101194.16;10267072;28;20081;-60
2021/10/13 22:41:08;;;;;;;10.15;5.13;;;;;;;11.78;71.69;101193.31;10263931;28;20123;-61
2021/10/13 22:46:10;;;;;;;6.70;5.00;;;;;;;11.70;71.29;101193.03;10268088;28;20522;-59
2021/10/13 22:51:12;;;;;;;8.93;4.88;;;;;;;11.61;72.59;101192.69;10268808;28;20551;-60
2021/10/13 22:56:16;;;;;;;6.13;4.38;;;;;;;11.70;72.20;101198.34;10264643;28;20065;-61
2021/10/13 23:01:17;;;;;;;5.03;4.40;;;;;;;11.75;71.53;101193.53;10269025;28;20125;-61
2021/10/13 23:06:19;;;;;;;4.97;3.60;;;;;;;11.70;72.03;101195.69;10263588;28;20054;-60
2021/10/13 23:11:20;;;;;;;8.15;4.65;;;;;;;11.71;72.65;101187.56;10262544;28;20573;-61
2021/10/13 23:16:22;;;;;;;5.40;4.78;;;;;;;11.56;71.83;101194.84;10267346;28;20138;-60